createdAt,value
2022-09-25T00:01:08.745Z,14.22
2022-09-25T00:06:59.968Z,14.50
2022-09-25T00:18:42.337Z,14.13
2022-09-25T00:23:52.980Z,14.60
2022-09-25T00:29:05.281Z,14.41
2022-09-25T00:34:13.103Z,14.43
2022-09-25T00:39:33.220Z,14.41
2022-09-25T00:45:05.422Z,14.33
2022-09-25T00:50:13.139Z,14.33
2022-09-25T00:55:28.849Z,14.33
2022-09-25T01:00:30.304Z,14.31
2022-09-25T01:05:45.989Z,14.20
2022-09-25T01:17:52.885Z,13.63
2022-09-25T01:23:06.903Z,13.92
2022-09-25T01:28:27.864Z,13.65
2022-09-25T01:33:42.107Z,13.53
2022-09-25T01:38:47.393Z,13.72
2022-09-25T01:43:48.315Z,13.70
2022-09-25T01:48:51.411Z,13.54
2022-09-25T01:53:54.243Z,13.72
2022-09-25T01:58:57.149Z,13.43
2022-09-25T02:04:10.775Z,13.30
2022-09-25T02:09:18.619Z,13.31
2022-09-25T02:14:31.970Z,13.24
2022-09-25T02:19:52.666Z,13.56
2022-09-25T02:24:59.115Z,13.26
2022-09-25T02:30:14.357Z,13.74
2022-09-25T02:35:28.065Z,13.68
2022-09-25T02:40:35.991Z,13.31
2022-09-25T02:45:45.472Z,13.02
2022-09-25T02:51:02.760Z,13.12
2022-09-25T02:56:05.623Z,13.35
2022-09-25T03:01:09.460Z,13.18
2022-09-25T03:06:41.409Z,12.88
2022-09-25T03:11:54.469Z,13.04
2022-09-25T03:17:10.885Z,13.17
2022-09-25T03:22:20.446Z,12.99
2022-09-25T03:27:32.986Z,12.80
2022-09-25T03:32:31.646Z,12.83
2022-09-25T03:37:33.123Z,12.65
2022-09-25T03:42:46.471Z,12.84
2022-09-25T03:47:43.815Z,12.95
2022-09-25T03:52:40.929Z,12.56
2022-09-25T03:57:38.775Z,12.74
2022-09-25T04:02:39.689Z,12.70
2022-09-25T04:07:38.546Z,12.53
2022-09-25T04:12:38.265Z,12.76
2022-09-25T04:17:41.423Z,12.74
2022-09-25T04:22:48.061Z,12.63
2022-09-25T04:27:52.298Z,12.68
2022-09-25T04:33:13.534Z,12.99
2022-09-25T04:38:19.486Z,13.08
2022-09-25T04:43:18.804Z,12.69
2022-09-25T04:48:15.973Z,12.95
2022-09-25T04:53:14.798Z,13.04
2022-09-25T04:58:16.455Z,13.21
2022-09-25T05:03:18.904Z,13.42
2022-09-25T05:08:23.601Z,13.58
2022-09-25T05:13:32.634Z,13.82
2022-09-25T05:18:35.952Z,13.88
2022-09-25T05:23:41.510Z,14.36
2022-09-25T05:28:59.654Z,15.21
2022-09-25T05:34:32.193Z,15.34
2022-09-25T05:39:55.947Z,16.19
2022-09-25T05:45:07.690Z,16.23
2022-09-25T05:50:47.334Z,17.02
2022-09-25T05:56:45.492Z,17.17
2022-09-25T06:02:23.699Z,17.38
2022-09-25T06:07:39.229Z,17.63
2022-09-25T06:13:03.950Z,17.32
2022-09-25T06:18:25.819Z,16.85
2022-09-25T06:24:00.471Z,16.31
2022-09-25T06:29:43.613Z,16.03
2022-09-25T06:35:05.849Z,17.26
2022-09-25T06:40:42.093Z,18.94
2022-09-25T06:46:22.410Z,21.81
2022-09-25T06:51:46.307Z,23.79
2022-09-25T07:09:47.460Z,26.91
2022-09-25T07:15:38.718Z,27.26
2022-09-25T07:46:13.897Z,28.52
2022-09-25T07:51:35.309Z,28.19
2022-09-25T07:57:28.273Z,29.01
2022-09-25T08:09:22.952Z,28.85
2022-09-25T08:14:40.840Z,28.12
2022-09-25T08:25:30.680Z,28.59
2022-09-25T08:36:11.150Z,30.13
2022-09-25T08:41:39.214Z,30.66
2022-09-25T08:47:52.234Z,30.30
2022-09-25T08:52:46.628Z,30.17
2022-09-25T09:04:49.154Z,30.84
2022-09-25T09:10:50.528Z,30.42
2022-09-25T09:23:15.901Z,30.47
2022-09-25T09:49:18.737Z,27.87
2022-09-25T10:07:12.292Z,27.55
2022-09-25T10:18:38.373Z,27.65
2022-09-25T10:24:25.414Z,28.02
2022-09-25T10:36:35.532Z,27.05
2022-09-25T10:43:00.000Z,27.18
2022-09-25T10:48:29.628Z,27.10
2022-09-25T11:00:47.173Z,27.60
2022-09-25T11:13:09.477Z,26.15
2022-09-25T11:25:36.068Z,26.11
2022-09-25T11:31:34.762Z,26.14
2022-09-25T11:43:48.463Z,26.45
2022-09-25T11:55:34.717Z,26.50
2022-09-25T12:19:38.701Z,26.42
2022-09-25T12:25:09.779Z,26.02
2022-09-25T12:49:15.714Z,26.25
2022-09-25T13:00:37.239Z,26.70
2022-09-25T13:05:54.788Z,26.85
2022-09-25T13:11:29.549Z,26.46
2022-09-25T13:17:23.440Z,26.60
2022-09-25T13:23:30.706Z,26.64
2022-09-25T13:29:22.921Z,26.13
2022-09-25T13:34:51.832Z,25.88
2022-09-25T13:40:23.752Z,26.31
2022-09-25T13:47:52.029Z,25.83
2022-09-25T13:52:14.460Z,25.76
2022-09-25T13:58:19.990Z,25.96
2022-09-25T14:03:47.359Z,25.52
2022-09-25T14:09:00.126Z,25.29
2022-09-25T14:21:05.840Z,25.48
2022-09-25T14:26:56.625Z,24.85
2022-09-25T14:38:11.091Z,24.94
2022-09-25T14:43:46.738Z,25.14
2022-09-25T14:49:20.676Z,24.88
2022-09-25T14:54:43.851Z,25.30
2022-09-25T14:59:54.239Z,24.89
2022-09-25T15:04:52.073Z,25.25
2022-09-25T15:10:05.561Z,24.61
2022-09-25T15:15:24.120Z,24.60
2022-09-25T15:20:42.501Z,24.84
2022-09-25T15:26:22.905Z,24.15
2022-09-25T15:32:20.763Z,24.40
2022-09-25T15:39:18.266Z,23.99
2022-09-25T15:43:46.228Z,23.39
2022-09-25T15:49:12.501Z,23.64
2022-09-25T15:54:33.207Z,22.84
2022-09-25T16:00:10.925Z,22.68
2022-09-25T16:05:24.703Z,22.48
2022-09-25T16:10:49.155Z,22.53
2022-09-25T16:16:00.240Z,22.24
2022-09-25T16:21:16.360Z,22.07
2022-09-25T16:26:23.567Z,21.44
2022-09-25T16:31:27.736Z,21.74
2022-09-25T16:36:55.171Z,21.54
2022-09-25T16:41:57.884Z,21.21
2022-09-25T16:52:47.654Z,20.86
2022-09-25T16:58:20.764Z,20.90
2022-09-25T17:03:19.110Z,20.63
2022-09-25T17:08:27.455Z,20.12
2022-09-25T17:13:30.346Z,20.45
2022-09-25T17:18:33.962Z,20.09
2022-09-25T17:23:49.375Z,19.86
2022-09-25T17:28:51.269Z,20.34
2022-09-25T17:40:06.495Z,19.56
2022-09-25T17:45:20.662Z,19.93
2022-09-25T17:50:42.698Z,19.33
2022-09-25T17:55:53.370Z,19.51
2022-09-25T18:01:29.044Z,19.11
2022-09-25T18:06:38.289Z,18.93
2022-09-25T18:11:57.786Z,19.22
2022-09-25T18:16:55.182Z,19.26
2022-09-25T18:22:10.504Z,19.32
2022-09-25T18:27:16.958Z,18.72
2022-09-25T18:32:27.743Z,18.72
2022-09-25T18:37:34.121Z,18.61
2022-09-25T18:42:32.966Z,19.18
2022-09-25T18:47:34.024Z,19.01
2022-09-25T18:52:41.193Z,18.99
2022-09-25T18:58:07.736Z,19.75
2022-09-25T19:03:25.023Z,19.34
2022-09-25T19:08:53.176Z,19.89
2022-09-25T19:14:18.563Z,19.42
2022-09-25T19:25:10.731Z,19.29
2022-09-25T19:36:07.754Z,19.16
2022-09-25T19:41:15.472Z,19.53
2022-09-25T19:46:28.720Z,19.55
2022-09-25T19:51:30.574Z,19.22
2022-09-25T19:56:34.054Z,19.66
2022-09-25T20:01:39.669Z,19.11
2022-09-25T20:06:53.497Z,19.32
2022-09-25T20:12:09.189Z,19.17
2022-09-25T20:17:16.513Z,18.57
2022-09-25T20:22:50.710Z,18.83
2022-09-25T20:28:49.561Z,18.54
2022-09-25T20:33:34.925Z,18.76
2022-09-25T20:44:24.809Z,18.08
2022-09-25T20:49:34.654Z,18.23
2022-09-25T20:54:41.265Z,18.06
2022-09-25T20:59:53.660Z,18.33
2022-09-25T21:05:11.533Z,17.82
2022-09-25T21:10:12.793Z,18.17
2022-09-25T21:15:13.339Z,17.83
2022-09-25T21:20:16.437Z,17.87
2022-09-25T21:25:28.679Z,17.36
2022-09-25T21:30:32.413Z,17.34
2022-09-25T21:35:32.829Z,17.68
2022-09-25T21:40:30.153Z,17.29
2022-09-25T21:45:30.947Z,17.31
2022-09-25T21:50:28.309Z,17.34
2022-09-25T21:55:32.645Z,17.51
2022-09-25T22:00:36.121Z,17.18
2022-09-25T22:05:35.582Z,17.19
2022-09-25T22:10:38.175Z,17.30
2022-09-25T22:15:44.760Z,17.74
2022-09-25T22:20:48.198Z,17.32
2022-09-25T22:25:46.604Z,17.23
2022-09-25T22:30:43.721Z,17.62
2022-09-25T22:35:43.019Z,17.33
2022-09-25T22:40:40.869Z,17.25
2022-09-25T22:45:48.410Z,17.59
2022-09-25T22:50:54.854Z,17.56
2022-09-25T22:55:53.773Z,17.08
2022-09-25T23:00:55.039Z,17.49
2022-09-25T23:05:59.702Z,17.39
2022-09-25T23:11:07.532Z,16.97
2022-09-25T23:16:16.217Z,17.28
2022-09-25T23:21:15.596Z,16.86
2022-09-25T23:26:17.270Z,17.36
2022-09-25T23:31:17.630Z,17.14
2022-09-25T23:36:22.602Z,16.93
2022-09-25T23:41:24.992Z,17.15
2022-09-25T23:46:26.954Z,16.87
2022-09-25T23:51:25.650Z,17.28
2022-09-25T23:56:32.211Z,17.55
